UWGG Airport Information

Runway Information
Runway 06 Length 1640 ft width 72 ft
Elevation 0 ft Threshold 0 ft Heading 68
Runway 24 Length 1640 ft Width 72 ft
Elevation 0 ft Threshold 0 ft Heading 248
Runway 15 Length 1969 ft width 72 ft
Elevation 0 ft Threshold 0 ft Heading 159
Runway 33 Length 1969 ft Width 72 ft
Elevation 0 ft Threshold 0 ft Heading 339
Runway 18L Length 8232 ft width 148 ft
Elevation 253 ft Threshold 0 ft Heading 191
Runway 36R Length 8232 ft Width 148 ft
Elevation 253 ft Threshold 0 ft Heading 11
Runway 18R Length 9203 ft width 148 ft
Elevation 256 ft Threshold 0 ft Heading 191
Runway 36L Length 9203 ft Width 148 ft
Elevation 254 ft Threshold 0 ft Heading 11
Airport Frequencies
Type APP Name NIZHNY APP Frequency 124.7 MHZ
Type ATIS Name NIZHNY ATI Frequency 127.8 MHZ
Type GCA Name GCA Frequency 120.4 MHZ
Type GND Name GND Frequency 121.8 MHZ
Type RDR Name ASR Frequency 120.8 MHZ
Type TWR Name TWR Frequency 120.4 MHZ
Airport Navaids
Type NDB Name Nizhny Novgorod Frequency 327 KHZ
Type NDB Name Nizhny Novgorod Frequency 245 KHZ
Type NDB Name Nizhny Novgorod Frequency 245 KHZ
Type NDB Name Nizhny Novgorod Frequency 327 KHZ
Airport Weather Information & NOTAM
ADDS - METARS form results

(0216 UTC 22 January 2019)
Data provider http://aviationweather.gov/metar/data/
 
METAR text: UWGG 220200Z 27003MPS 9000 -SN SCT010 M16/M18 Q1009 R36R/420145 NOSIG
Conditions at: UWGG (NIZHNY NOVGOROD , RU) observed 0200 UTC 22 January 2019
Temperature: -16.0°C ( 3°F)
Dewpoint: -18.0°C (-0°F) [RH = 85%]
Pressure (altimeter): 29.79 inches Hg (1009.0 mb)
Winds: from the W (270 degrees) at 7 MPH (6 knots; 3.1 m/s)
Visibility: 6 miles ( 9 km)
Ceiling: at least 12,000 feet AGL
Clouds: scattered clouds at 1000 feet AGL
Weather: -SN  (light snow)

METAR text: UWGG 220130Z 26003MPS 9999 -SN SCT010 M16/M18 Q1008 R36R/420145 NOSIG
Conditions at: UWGG (NIZHNY NOVGOROD , RU) observed 0130 UTC 22 January 2019
Temperature: -16.0°C ( 3°F)
Dewpoint: -18.0°C (-0°F) [RH = 85%]
Pressure (altimeter): 29.76 inches Hg (1008.0 mb)
Winds: from the W (260 degrees) at 7 MPH (6 knots; 3.1 m/s)
Visibility: 6 or more miles (10+ km)
Ceiling: at least 12,000 feet AGL
Clouds: scattered clouds at 1000 feet AGL
Weather: -SN  (light snow)

Forecast for: UWGG (NIZHNY NOVGOROD , RU)
Text: TAF UWGG 212250Z 2200/2224 27003MPS 9999 -SN BKN013 TXM10/2212Z TNM18/2206Z
Forecast period: 0000 UTC 22 January 2019 to 0000 UTC 23 January 2019
Forecast type: FROM: standard forecast or significant change
Winds: from the W (270 degrees) at 7 MPH (6 knots; 3.1 m/s)
Visibility: 6 or more miles 10+ km)
Ceiling: 1300 feet AGL
Clouds: broken clouds at 1300 feet AGL
Weather: -SN  (light snow)
Text: TEMPO 2200/2206 BKN010
Forecast period: 0000 to 0600 UTC 22 January 2019
Forecast type: TEMPORARY: The following changes expected for less than half the time period
Visibility: missing
Ceiling: 1000 feet AGL
Clouds: broken clouds at 1000 feet AGL
Weather: no significant weather forecast for this period